sensor_id;sensor_type;location;lat;lon;timestamp;temperature;humidity
44817;DHT22;30529;53.570;9.964;2022-12-07T00:01:57;4.00;99.90
44817;DHT22;30529;53.570;9.964;2022-12-07T00:04:06;4.00;99.90
44817;DHT22;30529;53.570;9.964;2022-12-07T00:06:42;4.00;99.90
44817;DHT22;30529;53.570;9.964;2022-12-07T00:09:14;4.00;99.90
44817;DHT22;30529;53.570;9.964;2022-12-07T00:11:41;4.00;99.90
44817;DHT22;30529;53.570;9.964;2022-12-07T00:14:11;4.00;99.90
44817;DHT22;30529;53.570;9.964;2022-12-07T00:16:38;4.00;99.90
44817;DHT22;30529;53.570;9.964;2022-12-07T00:19:04;4.00;99.90
44817;DHT22;30529;53.570;9.964;2022-12-07T00:21:35;4.10;99.90
44817;DHT22;30529;53.570;9.964;2022-12-07T00:24:02;4.10;99.90
44817;DHT22;30529;53.570;9.964;2022-12-07T00:26:36;4.10;99.90
44817;DHT22;30529;53.570;9.964;2022-12-07T00:29:06;4.00;99.90
44817;DHT22;30529;53.570;9.964;2022-12-07T00:31:34;4.10;99.90
44817;DHT22;30529;53.570;9.964;2022-12-07T00:34:11;4.10;99.90
44817;DHT22;30529;53.570;9.964;2022-12-07T00:36:37;4.10;99.90
44817;DHT22;30529;53.570;9.964;2022-12-07T00:39:03;4.20;99.90
44817;DHT22;30529;53.570;9.964;2022-12-07T00:41:30;4.20;99.90
44817;DHT22;30529;53.570;9.964;2022-12-07T00:43:56;4.20;99.90
44817;DHT22;30529;53.570;9.964;2022-12-07T00:46:24;4.20;99.90
44817;DHT22;30529;53.570;9.964;2022-12-07T00:48:51;4.20;99.90
44817;DHT22;30529;53.570;9.964;2022-12-07T00:51:18;4.20;99.90
44817;DHT22;30529;53.570;9.964;2022-12-07T00:53:45;4.10;99.90
44817;DHT22;30529;53.570;9.964;2022-12-07T00:56:21;4.10;99.90
44817;DHT22;30529;53.570;9.964;2022-12-07T00:58:55;4.10;99.90
44817;DHT22;30529;53.570;9.964;2022-12-07T01:01:22;4.10;99.90
44817;DHT22;30529;53.570;9.964;2022-12-07T01:03:49;4.10;99.90
44817;DHT22;30529;53.570;9.964;2022-12-07T01:06:17;4.10;99.90
44817;DHT22;30529;53.570;9.964;2022-12-07T01:08:44;4.10;99.90
44817;DHT22;30529;53.570;9.964;2022-12-07T01:11:14;4.00;99.90
44817;DHT22;30529;53.570;9.964;2022-12-07T01:13:41;3.90;99.90
44817;DHT22;30529;53.570;9.964;2022-12-07T01:16:07;3.80;99.90
44817;DHT22;30529;53.570;9.964;2022-12-07T01:18:35;3.80;99.90
44817;DHT22;30529;53.570;9.964;2022-12-07T01:21:02;3.90;99.90
44817;DHT22;30529;53.570;9.964;2022-12-07T01:23:29;3.90;99.90
44817;DHT22;30529;53.570;9.964;2022-12-07T01:26:01;3.90;99.90
44817;DHT22;30529;53.570;9.964;2022-12-07T01:28:27;3.80;99.90
44817;DHT22;30529;53.570;9.964;2022-12-07T01:31:11;3.70;99.90
44817;DHT22;30529;53.570;9.964;2022-12-07T01:33:39;3.60;99.90
44817;DHT22;30529;53.570;9.964;2022-12-07T01:36:23;3.60;99.90
44817;DHT22;30529;53.570;9.964;2022-12-07T01:38:58;3.70;99.90
44817;DHT22;30529;53.570;9.964;2022-12-07T01:41:28;3.80;99.90
44817;DHT22;30529;53.570;9.964;2022-12-07T01:44:09;3.90;99.90
44817;DHT22;30529;53.570;9.964;2022-12-07T01:46:36;3.90;99.90
44817;DHT22;30529;53.570;9.964;2022-12-07T01:49:06;3.90;99.90
44817;DHT22;30529;53.570;9.964;2022-12-07T01:51:33;3.80;99.90
44817;DHT22;30529;53.570;9.964;2022-12-07T01:54:00;3.70;99.90
44817;DHT22;30529;53.570;9.964;2022-12-07T01:56:27;3.60;99.90
44817;DHT22;30529;53.570;9.964;2022-12-07T01:58:55;3.70;99.90
44817;DHT22;30529;53.570;9.964;2022-12-07T02:01:22;3.70;99.90
44817;DHT22;30529;53.570;9.964;2022-12-07T02:03:48;3.60;99.90
44817;DHT22;30529;53.570;9.964;2022-12-07T02:06:18;3.50;99.90
44817;DHT22;30529;53.570;9.964;2022-12-07T02:08:47;3.50;99.90
44817;DHT22;30529;53.570;9.964;2022-12-07T02:11:13;3.40;99.90
44817;DHT22;30529;53.570;9.964;2022-12-07T02:13:40;3.30;99.90
44817;DHT22;30529;53.570;9.964;2022-12-07T02:16:27;3.30;99.90
44817;DHT22;30529;53.570;9.964;2022-12-07T02:35:12;3.10;99.90
44817;DHT22;30529;53.570;9.964;2022-12-07T02:40:33;3.10;99.90
44817;DHT22;30529;53.570;9.964;2022-12-07T02:43:14;3.10;99.90
44817;DHT22;30529;53.570;9.964;2022-12-07T02:45:44;3.10;99.90
44817;DHT22;30529;53.570;9.964;2022-12-07T02:48:12;3.10;99.90
44817;DHT22;30529;53.570;9.964;2022-12-07T02:50:44;3.10;99.90
44817;DHT22;30529;53.570;9.964;2022-12-07T02:53:33;3.20;99.90
44817;DHT22;30529;53.570;9.964;2022-12-07T03:01:57;3.10;99.90
44817;DHT22;30529;53.570;9.964;2022-12-07T03:05:29;3.00;99.90
44817;DHT22;30529;53.570;9.964;2022-12-07T03:10:30;3.00;99.90
44817;DHT22;30529;53.570;9.964;2022-12-07T03:13:07;3.00;99.90
44817;DHT22;30529;53.570;9.964;2022-12-07T03:21:27;2.90;99.90
44817;DHT22;30529;53.570;9.964;2022-12-07T03:24:00;2.90;99.90
44817;DHT22;30529;53.570;9.964;2022-12-07T03:26:35;2.90;99.90
44817;DHT22;30529;53.570;9.964;2022-12-07T03:29:09;2.90;99.90
44817;DHT22;30529;53.570;9.964;2022-12-07T03:31:47;2.90;99.90
44817;DHT22;30529;53.570;9.964;2022-12-07T03:34:34;2.80;99.90
44817;DHT22;30529;53.570;9.964;2022-12-07T03:37:08;2.80;99.90
44817;DHT22;30529;53.570;9.964;2022-12-07T03:40:03;2.90;99.90
44817;DHT22;30529;53.570;9.964;2022-12-07T03:42:32;2.90;99.90
44817;DHT22;30529;53.570;9.964;2022-12-07T03:45:00;2.80;99.90
44817;DHT22;30529;53.570;9.964;2022-12-07T03:47:31;2.80;99.90
44817;DHT22;30529;53.570;9.964;2022-12-07T03:50:10;2.80;99.90
44817;DHT22;30529;53.570;9.964;2022-12-07T03:52:53;2.70;99.90
44817;DHT22;30529;53.570;9.964;2022-12-07T03:55:27;2.70;99.90
44817;DHT22;30529;53.570;9.964;2022-12-07T03:57:56;2.70;99.90
44817;DHT22;30529;53.570;9.964;2022-12-07T04:00:25;2.60;99.90
44817;DHT22;30529;53.570;9.964;2022-12-07T04:02:52;2.70;99.90
44817;DHT22;30529;53.570;9.964;2022-12-07T04:05:19;2.60;99.90
44817;DHT22;30529;53.570;9.964;2022-12-07T04:07:45;2.60;99.90
44817;DHT22;30529;53.570;9.964;2022-12-07T04:10:11;2.60;99.90
44817;DHT22;30529;53.570;9.964;2022-12-07T04:12:37;2.60;99.90
44817;DHT22;30529;53.570;9.964;2022-12-07T04:15:04;2.60;99.90
44817;DHT22;30529;53.570;9.964;2022-12-07T04:17:30;2.60;99.90
44817;DHT22;30529;53.570;9.964;2022-12-07T04:19:56;2.50;99.90
44817;DHT22;30529;53.570;9.964;2022-12-07T04:22:22;2.60;99.90
44817;DHT22;30529;53.570;9.964;2022-12-07T04:24:49;2.60;99.90
44817;DHT22;30529;53.570;9.964;2022-12-07T04:27:15;2.60;99.90
44817;DHT22;30529;53.570;9.964;2022-12-07T04:29:41;2.60;99.90
44817;DHT22;30529;53.570;9.964;2022-12-07T04:32:07;2.60;99.90
44817;DHT22;30529;53.570;9.964;2022-12-07T04:34:33;2.60;99.90
44817;DHT22;30529;53.570;9.964;2022-12-07T04:36:59;2.50;99.90
44817;DHT22;30529;53.570;9.964;2022-12-07T04:39:30;2.50;99.90
44817;DHT22;30529;53.570;9.964;2022-12-07T04:41:57;2.50;99.90
44817;DHT22;30529;53.570;9.964;2022-12-07T04:44:24;2.50;99.90
44817;DHT22;30529;53.570;9.964;2022-12-07T04:46:51;2.50;99.90
44817;DHT22;30529;53.570;9.964;2022-12-07T04:49:18;2.50;99.90
44817;DHT22;30529;53.570;9.964;2022-12-07T04:51:45;2.50;99.90
44817;DHT22;30529;53.570;9.964;2022-12-07T04:54:12;2.50;99.90
44817;DHT22;30529;53.570;9.964;2022-12-07T04:56:39;2.50;99.90
44817;DHT22;30529;53.570;9.964;2022-12-07T04:59:05;2.50;99.90
44817;DHT22;30529;53.570;9.964;2022-12-07T05:01:31;2.40;99.90
44817;DHT22;30529;53.570;9.964;2022-12-07T05:03:58;2.40;99.90
44817;DHT22;30529;53.570;9.964;2022-12-07T05:06:25;2.40;99.90
44817;DHT22;30529;53.570;9.964;2022-12-07T05:08:51;2.40;99.90
44817;DHT22;30529;53.570;9.964;2022-12-07T05:11:17;2.50;99.90
44817;DHT22;30529;53.570;9.964;2022-12-07T05:14:03;2.60;99.90
44817;DHT22;30529;53.570;9.964;2022-12-07T05:16:30;2.70;99.90
44817;DHT22;30529;53.570;9.964;2022-12-07T05:18:56;2.80;99.90
44817;DHT22;30529;53.570;9.964;2022-12-07T05:21:23;2.70;99.90
44817;DHT22;30529;53.570;9.964;2022-12-07T05:23:49;2.80;99.90
44817;DHT22;30529;53.570;9.964;2022-12-07T05:26:15;2.80;99.90
44817;DHT22;30529;53.570;9.964;2022-12-07T05:28:41;2.70;99.90
44817;DHT22;30529;53.570;9.964;2022-12-07T05:31:07;2.60;99.90
44817;DHT22;30529;53.570;9.964;2022-12-07T05:33:33;2.60;99.90
44817;DHT22;30529;53.570;9.964;2022-12-07T05:36:00;2.60;99.90
44817;DHT22;30529;53.570;9.964;2022-12-07T05:38:32;2.60;99.90
44817;DHT22;30529;53.570;9.964;2022-12-07T05:41:06;2.60;99.90
44817;DHT22;30529;53.570;9.964;2022-12-07T05:43:32;2.70;99.90
44817;DHT22;30529;53.570;9.964;2022-12-07T05:45:59;2.80;99.90
44817;DHT22;30529;53.570;9.964;2022-12-07T05:48:26;2.80;99.90
44817;DHT22;30529;53.570;9.964;2022-12-07T05:50:52;2.80;99.90
44817;DHT22;30529;53.570;9.964;2022-12-07T05:53:18;2.70;99.90
44817;DHT22;30529;53.570;9.964;2022-12-07T05:55:44;2.70;99.90
44817;DHT22;30529;53.570;9.964;2022-12-07T05:58:11;2.70;99.90
44817;DHT22;30529;53.570;9.964;2022-12-07T06:00:56;2.60;99.90
44817;DHT22;30529;53.570;9.964;2022-12-07T06:03:22;2.60;99.90
44817;DHT22;30529;53.570;9.964;2022-12-07T06:05:48;2.60;99.90
44817;DHT22;30529;53.570;9.964;2022-12-07T06:08:14;2.50;99.90
44817;DHT22;30529;53.570;9.964;2022-12-07T06:10:41;2.60;99.90
44817;DHT22;30529;53.570;9.964;2022-12-07T06:13:08;2.50;99.90
44817;DHT22;30529;53.570;9.964;2022-12-07T06:15:38;2.50;99.90
44817;DHT22;30529;53.570;9.964;2022-12-07T06:18:04;2.60;99.90
44817;DHT22;30529;53.570;9.964;2022-12-07T06:20:30;2.60;99.90
44817;DHT22;30529;53.570;9.964;2022-12-07T06:22:57;2.60;99.90
44817;DHT22;30529;53.570;9.964;2022-12-07T06:25:23;2.60;99.90
44817;DHT22;30529;53.570;9.964;2022-12-07T06:27:49;2.60;99.90
44817;DHT22;30529;53.570;9.964;2022-12-07T06:30:15;2.60;99.90
44817;DHT22;30529;53.570;9.964;2022-12-07T06:32:41;2.60;99.90
44817;DHT22;30529;53.570;9.964;2022-12-07T06:35:07;2.60;99.90
44817;DHT22;30529;53.570;9.964;2022-12-07T06:37:33;2.60;99.90
44817;DHT22;30529;53.570;9.964;2022-12-07T06:40:00;2.60;99.90
44817;DHT22;30529;53.570;9.964;2022-12-07T06:42:26;2.70;99.90
44817;DHT22;30529;53.570;9.964;2022-12-07T06:44:52;2.70;99.90
44817;DHT22;30529;53.570;9.964;2022-12-07T06:47:18;2.70;99.90
44817;DHT22;30529;53.570;9.964;2022-12-07T06:49:44;2.70;99.90
44817;DHT22;30529;53.570;9.964;2022-12-07T06:52:13;2.80;99.90
44817;DHT22;30529;53.570;9.964;2022-12-07T06:54:39;2.90;99.90
44817;DHT22;30529;53.570;9.964;2022-12-07T06:57:05;2.90;99.90
44817;DHT22;30529;53.570;9.964;2022-12-07T06:59:31;2.90;99.90
44817;DHT22;30529;53.570;9.964;2022-12-07T07:01:57;2.90;99.90
44817;DHT22;30529;53.570;9.964;2022-12-07T07:04:23;2.90;99.90
44817;DHT22;30529;53.570;9.964;2022-12-07T07:06:50;2.90;99.90
44817;DHT22;30529;53.570;9.964;2022-12-07T07:09:16;2.90;99.90
44817;DHT22;30529;53.570;9.964;2022-12-07T07:11:42;2.90;99.90
44817;DHT22;30529;53.570;9.964;2022-12-07T07:14:08;2.90;99.90
44817;DHT22;30529;53.570;9.964;2022-12-07T07:16:35;2.90;99.90
44817;DHT22;30529;53.570;9.964;2022-12-07T07:19:01;2.90;99.90
44817;DHT22;30529;53.570;9.964;2022-12-07T07:21:27;2.90;99.90
44817;DHT22;30529;53.570;9.964;2022-12-07T07:23:53;2.90;99.90
44817;DHT22;30529;53.570;9.964;2022-12-07T07:26:19;2.90;99.90
44817;DHT22;30529;53.570;9.964;2022-12-07T07:28:52;2.80;99.90
44817;DHT22;30529;53.570;9.964;2022-12-07T07:31:19;2.80;99.90
44817;DHT22;30529;53.570;9.964;2022-12-07T07:33:46;2.80;99.90
44817;DHT22;30529;53.570;9.964;2022-12-07T07:36:12;2.80;99.90
44817;DHT22;30529;53.570;9.964;2022-12-07T07:38:39;2.90;99.90
44817;DHT22;30529;53.570;9.964;2022-12-07T07:41:05;2.90;99.90
44817;DHT22;30529;53.570;9.964;2022-12-07T07:43:32;2.90;99.90
44817;DHT22;30529;53.570;9.964;2022-12-07T07:45:58;3.00;99.90
44817;DHT22;30529;53.570;9.964;2022-12-07T07:48:24;3.00;99.90
44817;DHT22;30529;53.570;9.964;2022-12-07T07:50:51;3.00;99.90
44817;DHT22;30529;53.570;9.964;2022-12-07T07:53:17;3.10;99.90
44817;DHT22;30529;53.570;9.964;2022-12-07T07:55:53;3.10;99.90
44817;DHT22;30529;53.570;9.964;2022-12-07T07:58:20;3.20;99.90
44817;DHT22;30529;53.570;9.964;2022-12-07T08:00:46;3.20;99.90
44817;DHT22;30529;53.570;9.964;2022-12-07T08:03:12;3.20;99.90
44817;DHT22;30529;53.570;9.964;2022-12-07T08:05:38;3.20;99.90
44817;DHT22;30529;53.570;9.964;2022-12-07T08:08:04;3.20;99.90
44817;DHT22;30529;53.570;9.964;2022-12-07T08:10:32;3.20;99.90
44817;DHT22;30529;53.570;9.964;2022-12-07T08:13:00;3.20;99.90
44817;DHT22;30529;53.570;9.964;2022-12-07T08:15:46;3.20;99.90
44817;DHT22;30529;53.570;9.964;2022-12-07T08:18:14;3.30;99.90
44817;DHT22;30529;53.570;9.964;2022-12-07T08:20:41;3.30;99.90
44817;DHT22;30529;53.570;9.964;2022-12-07T08:23:08;3.30;99.90
44817;DHT22;30529;53.570;9.964;2022-12-07T08:25:35;3.30;99.90
44817;DHT22;30529;53.570;9.964;2022-12-07T08:28:01;3.40;99.90
44817;DHT22;30529;53.570;9.964;2022-12-07T08:30:29;3.40;99.90
44817;DHT22;30529;53.570;9.964;2022-12-07T08:32:55;3.40;99.90
44817;DHT22;30529;53.570;9.964;2022-12-07T08:35:22;3.50;99.90
44817;DHT22;30529;53.570;9.964;2022-12-07T08:37:48;3.50;99.90
44817;DHT22;30529;53.570;9.964;2022-12-07T08:40:15;3.50;99.90
44817;DHT22;30529;53.570;9.964;2022-12-07T08:42:42;3.60;99.90
44817;DHT22;30529;53.570;9.964;2022-12-07T08:45:13;3.60;99.90
44817;DHT22;30529;53.570;9.964;2022-12-07T08:48:06;3.70;99.90
44817;DHT22;30529;53.570;9.964;2022-12-07T08:50:33;3.70;99.90
44817;DHT22;30529;53.570;9.964;2022-12-07T08:52:59;3.70;99.90
44817;DHT22;30529;53.570;9.964;2022-12-07T08:55:27;3.70;99.90
44817;DHT22;30529;53.570;9.964;2022-12-07T08:57:53;3.80;99.90
44817;DHT22;30529;53.570;9.964;2022-12-07T09:00:19;3.80;99.90
44817;DHT22;30529;53.570;9.964;2022-12-07T09:02:46;3.90;99.90
44817;DHT22;30529;53.570;9.964;2022-12-07T09:05:12;3.90;99.90
44817;DHT22;30529;53.570;9.964;2022-12-07T09:07:42;4.00;99.90
44817;DHT22;30529;53.570;9.964;2022-12-07T09:10:09;4.00;99.90
44817;DHT22;30529;53.570;9.964;2022-12-07T09:12:35;4.00;99.90
44817;DHT22;30529;53.570;9.964;2022-12-07T09:15:01;4.10;99.90
44817;DHT22;30529;53.570;9.964;2022-12-07T09:17:32;4.10;99.90
44817;DHT22;30529;53.570;9.964;2022-12-07T09:19:59;4.10;99.90
44817;DHT22;30529;53.570;9.964;2022-12-07T09:22:29;4.20;99.90
44817;DHT22;30529;53.570;9.964;2022-12-07T09:24:56;4.30;99.90
44817;DHT22;30529;53.570;9.964;2022-12-07T09:27:22;4.30;99.90
44817;DHT22;30529;53.570;9.964;2022-12-07T09:29:48;4.30;99.90
44817;DHT22;30529;53.570;9.964;2022-12-07T09:32:14;4.40;99.90
44817;DHT22;30529;53.570;9.964;2022-12-07T09:34:44;4.40;99.90
44817;DHT22;30529;53.570;9.964;2022-12-07T09:37:10;4.50;99.90
44817;DHT22;30529;53.570;9.964;2022-12-07T09:39:40;4.40;99.90
44817;DHT22;30529;53.570;9.964;2022-12-07T09:42:07;4.50;99.90
44817;DHT22;30529;53.570;9.964;2022-12-07T09:44:34;4.60;99.90
44817;DHT22;30529;53.570;9.964;2022-12-07T09:47:01;4.70;99.90
44817;DHT22;30529;53.570;9.964;2022-12-07T09:49:29;4.70;99.90
44817;DHT22;30529;53.570;9.964;2022-12-07T09:54:42;4.80;99.90
44817;DHT22;30529;53.570;9.964;2022-12-07T09:57:11;4.80;99.90
44817;DHT22;30529;53.570;9.964;2022-12-07T09:59:38;4.80;99.90
44817;DHT22;30529;53.570;9.964;2022-12-07T10:02:23;4.80;99.90
44817;DHT22;30529;53.570;9.964;2022-12-07T10:04:50;4.80;99.90
44817;DHT22;30529;53.570;9.964;2022-12-07T10:07:16;4.80;99.90
44817;DHT22;30529;53.570;9.964;2022-12-07T10:09:42;4.90;99.90
44817;DHT22;30529;53.570;9.964;2022-12-07T10:12:11;4.80;99.90
44817;DHT22;30529;53.570;9.964;2022-12-07T10:14:40;4.80;99.90
44817;DHT22;30529;53.570;9.964;2022-12-07T10:17:37;4.90;99.90
44817;DHT22;30529;53.570;9.964;2022-12-07T10:22:38;4.90;99.90
44817;DHT22;30529;53.570;9.964;2022-12-07T10:25:20;4.90;99.90
44817;DHT22;30529;53.570;9.964;2022-12-07T10:27:58;4.90;99.90
44817;DHT22;30529;53.570;9.964;2022-12-07T10:30:25;4.90;99.90
44817;DHT22;30529;53.570;9.964;2022-12-07T10:32:51;4.90;99.90
44817;DHT22;30529;53.570;9.964;2022-12-07T10:35:28;4.90;99.90
44817;DHT22;30529;53.570;9.964;2022-12-07T10:37:57;4.90;99.90
44817;DHT22;30529;53.570;9.964;2022-12-07T10:51:28;4.90;99.90
44817;DHT22;30529;53.570;9.964;2022-12-07T10:53:59;4.90;99.90
44817;DHT22;30529;53.570;9.964;2022-12-07T11:16:13;5.00;99.90
44817;DHT22;30529;53.570;9.964;2022-12-07T11:21:39;4.90;99.90
44817;DHT22;30529;53.570;9.964;2022-12-07T11:24:18;4.90;99.90
44817;DHT22;30529;53.570;9.964;2022-12-07T11:38:18;5.10;99.90
44817;DHT22;30529;53.570;9.964;2022-12-07T11:40:49;5.10;99.90
44817;DHT22;30529;53.570;9.964;2022-12-07T11:45:57;5.10;99.90
44817;DHT22;30529;53.570;9.964;2022-12-07T11:48:53;5.10;99.90
44817;DHT22;30529;53.570;9.964;2022-12-07T11:51:21;5.20;99.90
44817;DHT22;30529;53.570;9.964;2022-12-07T11:53:53;5.10;99.90
44817;DHT22;30529;53.570;9.964;2022-12-07T11:56:23;5.20;99.90
44817;DHT22;30529;53.570;9.964;2022-12-07T11:58:57;5.20;99.90
44817;DHT22;30529;53.570;9.964;2022-12-07T12:06:39;5.10;99.90
44817;DHT22;30529;53.570;9.964;2022-12-07T12:09:19;5.10;99.90
44817;DHT22;30529;53.570;9.964;2022-12-07T12:15:03;5.00;99.90
44817;DHT22;30529;53.570;9.964;2022-12-07T12:20:40;4.90;99.90
44817;DHT22;30529;53.570;9.964;2022-12-07T12:23:24;4.80;99.90
44817;DHT22;30529;53.570;9.964;2022-12-07T12:25:59;4.80;99.90
44817;DHT22;30529;53.570;9.964;2022-12-07T12:28:41;4.80;99.90
44817;DHT22;30529;53.570;9.964;2022-12-07T12:33:52;5.00;99.90
44817;DHT22;30529;53.570;9.964;2022-12-07T12:38:50;5.00;99.90
44817;DHT22;30529;53.570;9.964;2022-12-07T12:44:02;5.00;99.90
44817;DHT22;30529;53.570;9.964;2022-12-07T12:51:46;5.00;99.90
44817;DHT22;30529;53.570;9.964;2022-12-07T12:54:23;4.90;99.90
44817;DHT22;30529;53.570;9.964;2022-12-07T12:57:15;4.90;99.90
44817;DHT22;30529;53.570;9.964;2022-12-07T13:02:32;4.90;99.90
44817;DHT22;30529;53.570;9.964;2022-12-07T13:10:32;4.80;99.90
44817;DHT22;30529;53.570;9.964;2022-12-07T13:15:45;4.80;99.90
44817;DHT22;30529;53.570;9.964;2022-12-07T13:28:54;5.00;99.90
44817;DHT22;30529;53.570;9.964;2022-12-07T13:31:42;5.10;99.90
44817;DHT22;30529;53.570;9.964;2022-12-07T13:36:59;5.30;99.90
44817;DHT22;30529;53.570;9.964;2022-12-07T13:39:27;5.30;99.90
44817;DHT22;30529;53.570;9.964;2022-12-07T13:41:58;5.20;99.90
44817;DHT22;30529;53.570;9.964;2022-12-07T13:44:27;5.20;99.90
44817;DHT22;30529;53.570;9.964;2022-12-07T13:47:03;5.10;99.90
44817;DHT22;30529;53.570;9.964;2022-12-07T13:49:36;5.00;99.90
44817;DHT22;30529;53.570;9.964;2022-12-07T13:52:24;5.00;99.90
44817;DHT22;30529;53.570;9.964;2022-12-07T13:54:58;5.00;99.90
44817;DHT22;30529;53.570;9.964;2022-12-07T13:57:25;5.00;99.90
44817;DHT22;30529;53.570;9.964;2022-12-07T13:59:53;4.90;99.90
44817;DHT22;30529;53.570;9.964;2022-12-07T14:02:33;4.80;99.90
44817;DHT22;30529;53.570;9.964;2022-12-07T14:07:34;4.70;99.90
44817;DHT22;30529;53.570;9.964;2022-12-07T14:10:05;4.70;99.90
44817;DHT22;30529;53.570;9.964;2022-12-07T14:12:36;4.60;99.90
44817;DHT22;30529;53.570;9.964;2022-12-07T14:15:05;4.60;99.90
44817;DHT22;30529;53.570;9.964;2022-12-07T14:17:53;4.50;99.90
44817;DHT22;30529;53.570;9.964;2022-12-07T14:23:02;4.40;99.90
44817;DHT22;30529;53.570;9.964;2022-12-07T14:25:48;4.30;99.90
44817;DHT22;30529;53.570;9.964;2022-12-07T14:28:29;4.30;99.90
44817;DHT22;30529;53.570;9.964;2022-12-07T14:30:57;4.30;99.90
44817;DHT22;30529;53.570;9.964;2022-12-07T14:33:24;4.30;99.90
44817;DHT22;30529;53.570;9.964;2022-12-07T14:35:50;4.30;99.90
44817;DHT22;30529;53.570;9.964;2022-12-07T14:38:21;4.20;99.90
44817;DHT22;30529;53.570;9.964;2022-12-07T14:40:48;4.10;99.90
44817;DHT22;30529;53.570;9.964;2022-12-07T14:43:16;4.00;99.90
44817;DHT22;30529;53.570;9.964;2022-12-07T14:45:42;4.00;99.90
44817;DHT22;30529;53.570;9.964;2022-12-07T14:48:13;3.90;99.90
44817;DHT22;30529;53.570;9.964;2022-12-07T14:50:50;3.80;99.90
44817;DHT22;30529;53.570;9.964;2022-12-07T14:53:19;3.80;99.90
44817;DHT22;30529;53.570;9.964;2022-12-07T14:55:48;3.80;99.90
44817;DHT22;30529;53.570;9.964;2022-12-07T14:58:15;3.70;99.90
44817;DHT22;30529;53.570;9.964;2022-12-07T15:00:44;3.70;99.90
44817;DHT22;30529;53.570;9.964;2022-12-07T15:03:10;3.70;99.90
44817;DHT22;30529;53.570;9.964;2022-12-07T15:05:45;3.70;99.90
44817;DHT22;30529;53.570;9.964;2022-12-07T15:08:14;3.70;99.90
44817;DHT22;30529;53.570;9.964;2022-12-07T15:10:40;3.80;99.90
44817;DHT22;30529;53.570;9.964;2022-12-07T15:13:10;3.80;99.90
44817;DHT22;30529;53.570;9.964;2022-12-07T15:15:55;3.80;99.90
44817;DHT22;30529;53.570;9.964;2022-12-07T15:18:23;3.80;99.90
44817;DHT22;30529;53.570;9.964;2022-12-07T15:20:50;3.80;99.90
44817;DHT22;30529;53.570;9.964;2022-12-07T15:23:19;3.80;99.90
44817;DHT22;30529;53.570;9.964;2022-12-07T15:25:47;3.80;99.90
44817;DHT22;30529;53.570;9.964;2022-12-07T15:28:14;3.70;99.90
44817;DHT22;30529;53.570;9.964;2022-12-07T15:30:42;3.70;99.90
44817;DHT22;30529;53.570;9.964;2022-12-07T15:33:12;3.70;99.90
44817;DHT22;30529;53.570;9.964;2022-12-07T15:35:39;3.60;99.90
44817;DHT22;30529;53.570;9.964;2022-12-07T15:38:06;3.50;99.90
44817;DHT22;30529;53.570;9.964;2022-12-07T15:40:32;3.40;99.90
44817;DHT22;30529;53.570;9.964;2022-12-07T15:42:58;3.40;99.90
44817;DHT22;30529;53.570;9.964;2022-12-07T15:45:24;3.30;99.90
44817;DHT22;30529;53.570;9.964;2022-12-07T15:47:50;3.30;99.90
44817;DHT22;30529;53.570;9.964;2022-12-07T15:50:17;3.30;99.90
44817;DHT22;30529;53.570;9.964;2022-12-07T15:52:43;3.30;99.90
44817;DHT22;30529;53.570;9.964;2022-12-07T15:55:10;3.20;99.90
44817;DHT22;30529;53.570;9.964;2022-12-07T15:57:37;3.20;99.90
44817;DHT22;30529;53.570;9.964;2022-12-07T16:00:06;3.30;99.90
44817;DHT22;30529;53.570;9.964;2022-12-07T16:02:32;3.30;99.90
44817;DHT22;30529;53.570;9.964;2022-12-07T16:04:58;3.30;99.90
44817;DHT22;30529;53.570;9.964;2022-12-07T16:07:24;3.40;99.90
44817;DHT22;30529;53.570;9.964;2022-12-07T16:09:50;3.40;99.90
44817;DHT22;30529;53.570;9.964;2022-12-07T16:12:17;3.40;99.90
44817;DHT22;30529;53.570;9.964;2022-12-07T16:14:43;3.40;99.90
44817;DHT22;30529;53.570;9.964;2022-12-07T16:17:09;3.40;99.90
44817;DHT22;30529;53.570;9.964;2022-12-07T16:19:36;3.50;99.90
44817;DHT22;30529;53.570;9.964;2022-12-07T16:22:04;3.50;99.90
44817;DHT22;30529;53.570;9.964;2022-12-07T16:24:30;3.50;99.90
44817;DHT22;30529;53.570;9.964;2022-12-07T16:26:56;3.50;99.90
44817;DHT22;30529;53.570;9.964;2022-12-07T16:29:23;3.50;99.90
44817;DHT22;30529;53.570;9.964;2022-12-07T16:31:50;3.50;99.90
44817;DHT22;30529;53.570;9.964;2022-12-07T16:34:17;3.40;99.90
44817;DHT22;30529;53.570;9.964;2022-12-07T16:36:43;3.40;99.90
44817;DHT22;30529;53.570;9.964;2022-12-07T16:39:10;3.30;99.90
44817;DHT22;30529;53.570;9.964;2022-12-07T16:41:36;3.30;99.90
44817;DHT22;30529;53.570;9.964;2022-12-07T16:44:05;3.20;99.90
44817;DHT22;30529;53.570;9.964;2022-12-07T16:46:32;3.20;99.90
44817;DHT22;30529;53.570;9.964;2022-12-07T16:48:58;3.10;99.90
44817;DHT22;30529;53.570;9.964;2022-12-07T16:51:24;3.10;99.90
44817;DHT22;30529;53.570;9.964;2022-12-07T16:53:52;3.10;99.90
44817;DHT22;30529;53.570;9.964;2022-12-07T16:56:19;3.10;99.90
44817;DHT22;30529;53.570;9.964;2022-12-07T16:58:46;3.10;99.90
44817;DHT22;30529;53.570;9.964;2022-12-07T17:01:16;3.20;99.90
44817;DHT22;30529;53.570;9.964;2022-12-07T17:03:46;3.20;99.90
44817;DHT22;30529;53.570;9.964;2022-12-07T17:06:24;3.20;99.90
44817;DHT22;30529;53.570;9.964;2022-12-07T17:08:51;3.20;99.90
44817;DHT22;30529;53.570;9.964;2022-12-07T17:11:20;3.20;99.90
44817;DHT22;30529;53.570;9.964;2022-12-07T17:13:49;3.20;99.90
44817;DHT22;30529;53.570;9.964;2022-12-07T17:16:35;3.20;99.90
44817;DHT22;30529;53.570;9.964;2022-12-07T17:19:05;3.10;99.90
44817;DHT22;30529;53.570;9.964;2022-12-07T17:21:32;3.10;99.90
44817;DHT22;30529;53.570;9.964;2022-12-07T17:23:59;3.10;99.90
44817;DHT22;30529;53.570;9.964;2022-12-07T17:26:27;3.00;99.90
44817;DHT22;30529;53.570;9.964;2022-12-07T17:28:53;3.10;99.90
44817;DHT22;30529;53.570;9.964;2022-12-07T17:31:21;3.10;99.90
44817;DHT22;30529;53.570;9.964;2022-12-07T17:33:49;3.10;99.90
44817;DHT22;30529;53.570;9.964;2022-12-07T17:38:42;3.10;99.90
44817;DHT22;30529;53.570;9.964;2022-12-07T17:41:14;3.10;99.90
44817;DHT22;30529;53.570;9.964;2022-12-07T17:44:00;3.00;99.90
44817;DHT22;30529;53.570;9.964;2022-12-07T17:46:26;3.00;99.90
44817;DHT22;30529;53.570;9.964;2022-12-07T17:48:56;3.00;99.90
44817;DHT22;30529;53.570;9.964;2022-12-07T17:51:23;3.00;99.90
44817;DHT22;30529;53.570;9.964;2022-12-07T17:54:08;3.00;99.90
44817;DHT22;30529;53.570;9.964;2022-12-07T17:56:36;2.90;99.90
44817;DHT22;30529;53.570;9.964;2022-12-07T17:59:03;2.90;99.90
44817;DHT22;30529;53.570;9.964;2022-12-07T18:01:29;2.90;99.90
44817;DHT22;30529;53.570;9.964;2022-12-07T18:03:55;2.90;99.90
44817;DHT22;30529;53.570;9.964;2022-12-07T18:06:21;2.90;99.90
44817;DHT22;30529;53.570;9.964;2022-12-07T18:08:47;2.90;99.90
44817;DHT22;30529;53.570;9.964;2022-12-07T18:11:13;2.90;99.90
44817;DHT22;30529;53.570;9.964;2022-12-07T18:13:39;2.90;99.90
44817;DHT22;30529;53.570;9.964;2022-12-07T18:16:17;2.90;99.90
44817;DHT22;30529;53.570;9.964;2022-12-07T18:18:44;3.00;99.90
44817;DHT22;30529;53.570;9.964;2022-12-07T18:21:13;3.00;99.90
44817;DHT22;30529;53.570;9.964;2022-12-07T18:23:43;3.00;99.90